createdAt,value
2023-04-01T00:01:49.490Z,7.40
2023-04-01T00:04:17.752Z,7.38
2023-04-01T00:06:46.258Z,7.34
2023-04-01T00:09:14.456Z,7.37
2023-04-01T00:11:42.644Z,7.36
2023-04-01T00:14:11.558Z,7.35
2023-04-01T00:16:41.330Z,7.41
2023-04-01T00:19:18.331Z,7.43
2023-04-01T00:21:55.310Z,7.39
2023-04-01T00:24:23.544Z,7.34
2023-04-01T00:26:51.823Z,7.39
2023-04-01T00:29:20.404Z,7.42
2023-04-01T00:32:08.271Z,7.39
2023-04-01T00:34:36.242Z,7.46
2023-04-01T00:37:04.291Z,7.46
2023-04-01T00:39:33.065Z,7.49
2023-04-01T00:42:14.881Z,7.43
2023-04-01T00:44:44.469Z,7.49
2023-04-01T00:47:15.043Z,7.49
2023-04-01T00:49:46.107Z,7.51
2023-04-01T00:52:17.622Z,7.49
2023-04-01T00:54:56.643Z,7.52
2023-04-01T00:57:38.671Z,7.52
2023-04-01T01:00:08.688Z,7.56
2023-04-01T01:02:38.350Z,7.54
2023-04-01T01:05:10.227Z,7.52
2023-04-01T01:07:45.809Z,7.54
2023-04-01T01:10:19.839Z,7.52
2023-04-01T01:12:56.620Z,7.54
2023-04-01T01:15:28.270Z,7.50
2023-04-01T01:18:04.323Z,7.54
2023-04-01T01:20:56.146Z,7.51
2023-04-01T01:24:07.413Z,7.55
2023-04-01T01:26:49.080Z,7.49
2023-04-01T01:29:42.489Z,7.50
2023-04-01T01:32:37.393Z,7.51
2023-04-01T01:35:21.254Z,7.49
2023-04-01T01:37:53.170Z,7.47
2023-04-01T01:40:29.603Z,7.44
2023-04-01T01:43:02.961Z,7.49
2023-04-01T01:45:54.528Z,7.46
2023-04-01T01:48:25.410Z,7.41
2023-04-01T01:50:55.918Z,7.47
2023-04-01T01:53:24.253Z,7.41
2023-04-01T01:55:53.096Z,7.41
2023-04-01T01:58:32.712Z,7.44
2023-04-01T02:01:03.323Z,7.46
2023-04-01T02:03:35.354Z,7.48
2023-04-01T02:06:23.977Z,7.47
2023-04-01T02:08:55.703Z,7.46
2023-04-01T02:11:30.512Z,7.42
2023-04-01T02:14:04.193Z,7.36
2023-04-01T02:16:38.056Z,7.43
2023-04-01T02:19:10.212Z,7.41
2023-04-01T02:21:46.808Z,7.38
2023-04-01T02:24:17.076Z,7.31
2023-04-01T02:26:47.413Z,7.33
2023-04-01T02:29:34.523Z,7.30
2023-04-01T02:32:04.237Z,7.33
2023-04-01T02:34:32.596Z,7.35
2023-04-01T02:37:03.156Z,7.39
2023-04-01T02:39:31.651Z,7.36
2023-04-01T02:41:59.941Z,7.33
2023-04-01T02:44:28.217Z,7.33
2023-04-01T02:46:56.319Z,7.29
2023-04-01T02:49:24.455Z,7.27
2023-04-01T02:51:53.097Z,7.24
2023-04-01T02:54:26.014Z,7.30
2023-04-01T02:56:54.225Z,7.23
2023-04-01T02:59:22.269Z,7.26
2023-04-01T03:01:50.342Z,7.19
2023-04-01T03:04:18.810Z,7.21
2023-04-01T03:06:51.240Z,7.27
2023-04-01T03:09:19.395Z,7.26
2023-04-01T03:11:48.834Z,7.24
2023-04-01T03:14:16.936Z,7.21
2023-04-01T03:16:48.178Z,7.17
2023-04-01T03:19:16.604Z,7.22
2023-04-01T03:21:45.058Z,7.17
2023-04-01T03:24:13.010Z,7.15
2023-04-01T03:26:41.369Z,7.19
2023-04-01T03:29:11.816Z,7.14
2023-04-01T03:31:59.054Z,7.14
2023-04-01T03:34:27.617Z,7.11
2023-04-01T03:36:56.406Z,7.16
2023-04-01T03:39:24.759Z,7.18
2023-04-01T03:42:07.635Z,7.18
2023-04-01T03:44:40.021Z,7.14
2023-04-01T03:47:10.149Z,7.10
2023-04-01T03:49:38.404Z,7.07
2023-04-01T03:52:06.578Z,7.04
2023-04-01T03:54:35.914Z,6.97
2023-04-01T03:57:04.176Z,7.01
2023-04-01T03:59:32.566Z,7.03
2023-04-01T04:02:02.317Z,6.95
2023-04-01T04:04:33.771Z,6.93
2023-04-01T04:07:04.890Z,6.90
2023-04-01T04:09:51.473Z,6.91
2023-04-01T04:12:19.522Z,6.93
2023-04-01T04:14:47.699Z,6.95
2023-04-01T04:17:17.471Z,6.91
2023-04-01T04:19:49.332Z,6.90
2023-04-01T04:22:18.174Z,6.90
2023-04-01T04:24:46.159Z,6.87
2023-04-01T04:27:15.577Z,6.82
2023-04-01T04:29:55.096Z,6.75
2023-04-01T04:32:24.697Z,6.73
2023-04-01T04:34:52.810Z,6.75
2023-04-01T04:37:21.542Z,6.75
2023-04-01T04:39:50.069Z,6.77
2023-04-01T04:42:30.519Z,6.74
2023-04-01T04:45:16.451Z,6.66
2023-04-01T04:47:54.783Z,6.62
2023-04-01T04:50:23.217Z,6.65
2023-04-01T04:53:00.654Z,6.66
2023-04-01T04:55:29.603Z,6.64
2023-04-01T04:58:17.083Z,6.69
2023-04-01T05:00:47.137Z,6.72
2023-04-01T05:03:23.952Z,6.66
2023-04-01T05:05:53.559Z,6.69
2023-04-01T05:08:22.302Z,6.73
2023-04-01T05:10:50.402Z,6.75
2023-04-01T05:13:18.777Z,6.77
2023-04-01T05:15:49.868Z,6.76
2023-04-01T05:18:18.539Z,6.79
2023-04-01T05:20:56.063Z,6.82
2023-04-01T05:23:24.660Z,6.82
2023-04-01T05:25:53.793Z,6.83
2023-04-01T05:28:30.944Z,6.86
2023-04-01T05:31:00.804Z,6.85
2023-04-01T05:33:33.572Z,6.90
2023-04-01T05:36:10.603Z,6.91
2023-04-01T05:38:39.601Z,6.96
2023-04-01T05:41:10.765Z,6.98
2023-04-01T05:43:44.415Z,7.01
2023-04-01T05:46:35.877Z,7.07
2023-04-01T05:49:21.035Z,7.06
2023-04-01T05:52:00.926Z,7.12
2023-04-01T05:54:30.049Z,7.17
2023-04-01T05:56:58.235Z,7.17
2023-04-01T05:59:26.278Z,7.16
2023-04-01T06:01:55.103Z,7.27
2023-04-01T06:04:23.467Z,7.30
2023-04-01T06:06:52.472Z,7.30
2023-04-01T06:09:27.981Z,7.32
2023-04-01T06:12:16.791Z,7.37
2023-04-01T06:15:24.944Z,7.37
2023-04-01T06:18:10.810Z,7.39
2023-04-01T06:20:48.800Z,7.41
2023-04-01T06:23:47.702Z,7.47
2023-04-01T06:26:32.032Z,7.45
2023-04-01T06:29:13.266Z,7.52
2023-04-01T06:31:57.868Z,7.55
2023-04-01T06:34:45.123Z,7.52
2023-04-01T06:37:25.556Z,7.57
2023-04-01T06:40:31.408Z,7.52
2023-04-01T06:43:15.164Z,7.51
2023-04-01T06:46:21.955Z,7.56
2023-04-01T06:49:50.862Z,7.58
2023-04-01T06:52:49.833Z,7.53
2023-04-01T06:55:41.525Z,7.56
2023-04-01T06:58:24.362Z,7.64
2023-04-01T07:00:55.752Z,7.62
2023-04-01T07:03:33.951Z,7.63
2023-04-01T07:06:06.284Z,7.60
2023-04-01T07:08:44.127Z,7.69
2023-04-01T07:11:16.544Z,7.68
2023-04-01T07:14:11.266Z,7.68
2023-04-01T07:16:46.110Z,7.66
2023-04-01T07:19:20.785Z,7.65
2023-04-01T07:22:23.731Z,7.68
2023-04-01T07:25:15.158Z,7.71
2023-04-01T07:27:47.495Z,7.59
2023-04-01T07:30:17.477Z,7.62
2023-04-01T07:32:53.125Z,7.60
2023-04-01T07:35:35.420Z,7.66
2023-04-01T07:38:17.079Z,7.67
2023-04-01T07:40:54.277Z,7.73
2023-04-01T07:43:38.509Z,7.79
2023-04-01T07:46:44.894Z,7.86
2023-04-01T07:49:19.316Z,7.87
2023-04-01T07:51:59.736Z,7.91
2023-04-01T07:54:35.107Z,7.96
2023-04-01T07:57:09.636Z,7.94
2023-04-01T08:00:00.089Z,7.97
2023-04-01T08:02:58.572Z,8.02
2023-04-01T08:05:32.763Z,8.03
2023-04-01T08:08:14.295Z,8.05
2023-04-01T08:11:34.204Z,8.06
2023-04-01T08:14:28.273Z,7.98
2023-04-01T08:17:23.020Z,7.96
2023-04-01T08:20:10.593Z,7.98
2023-04-01T08:22:44.187Z,8.04
2023-04-01T08:25:26.438Z,8.02
2023-04-01T08:28:02.003Z,7.95
2023-04-01T08:30:41.281Z,8.08
2023-04-01T08:33:17.132Z,8.02
2023-04-01T08:35:51.326Z,7.96
2023-04-01T08:38:26.978Z,7.92
2023-04-01T08:41:02.566Z,7.88
2023-04-01T08:44:27.055Z,7.82
2023-04-01T08:47:26.666Z,7.82
2023-04-01T08:50:36.455Z,7.82
2023-04-01T08:53:36.988Z,7.80
2023-04-01T08:56:17.332Z,7.82
2023-04-01T08:59:15.696Z,7.91
2023-04-01T09:02:16.996Z,7.93
2023-04-01T09:05:24.664Z,8.07
2023-04-01T09:08:06.159Z,8.17
2023-04-01T09:11:02.594Z,8.23
2023-04-01T09:14:08.903Z,8.34
2023-04-01T09:17:20.510Z,8.53
2023-04-01T09:20:11.163Z,8.74
2023-04-01T09:22:52.735Z,8.83
2023-04-01T09:25:32.385Z,8.86
2023-04-01T09:28:12.730Z,8.70
2023-04-01T09:31:16.401Z,8.72
2023-04-01T09:34:23.483Z,8.64
2023-04-01T09:37:21.727Z,8.66
2023-04-01T09:40:18.221Z,8.60
2023-04-01T09:43:18.013Z,8.67
2023-04-01T09:46:00.571Z,8.52
2023-04-01T09:49:19.677Z,8.52
2023-04-01T09:52:01.278Z,8.52
2023-04-01T09:54:54.048Z,8.44
2023-04-01T09:58:03.655Z,8.46
2023-04-01T10:01:28.923Z,8.49
2023-04-01T10:04:38.436Z,8.45
2023-04-01T10:07:37.617Z,8.55
2023-04-01T10:10:37.273Z,8.56
2023-04-01T10:13:27.626Z,8.51
2023-04-01T10:16:43.622Z,8.60
2023-04-01T10:19:56.310Z,8.58
2023-04-01T10:22:51.156Z,8.67
2023-04-01T10:25:48.814Z,8.83
2023-04-01T10:28:46.415Z,8.93
2023-04-01T10:31:45.213Z,9.07
2023-04-01T10:34:50.097Z,9.23
2023-04-01T10:37:34.308Z,9.37
2023-04-01T10:40:38.105Z,9.43
2023-04-01T10:44:13.894Z,9.52
2023-04-01T10:47:04.900Z,9.39
2023-04-01T10:50:12.385Z,9.45
2023-04-01T10:53:33.191Z,9.44
2023-04-01T10:56:36.991Z,9.45
2023-04-01T11:00:00.445Z,9.41
2023-04-01T11:03:42.153Z,9.43
2023-04-01T11:06:58.538Z,9.45
2023-04-01T11:09:52.569Z,9.46
2023-04-01T11:13:05.511Z,9.47
2023-04-01T11:15:50.355Z,9.50
2023-04-01T11:18:48.487Z,9.56
2023-04-01T11:21:51.390Z,9.51
2023-04-01T11:24:46.556Z,9.65
2023-04-01T11:28:03.786Z,9.47
2023-04-01T11:30:46.463Z,9.61
2023-04-01T11:33:21.909Z,9.60
2023-04-01T11:36:11.090Z,9.68
2023-04-01T11:39:00.956Z,9.68
2023-04-01T11:41:54.138Z,9.68
2023-04-01T11:44:50.292Z,9.66
2023-04-01T11:47:46.973Z,9.64
2023-04-01T11:50:32.462Z,9.62
2023-04-01T11:53:24.856Z,9.70
2023-04-01T11:56:04.044Z,9.68
2023-04-01T11:58:59.029Z,9.69
2023-04-01T12:01:45.433Z,9.63
2023-04-01T12:04:43.711Z,9.73
2023-04-01T12:07:29.818Z,9.82
2023-04-01T12:10:07.929Z,9.85
2023-04-01T12:12:54.129Z,9.81
2023-04-01T12:15:34.680Z,9.89
2023-04-01T12:18:10.336Z,9.87
2023-04-01T12:20:50.570Z,9.88
2023-04-01T12:23:44.308Z,9.81
2023-04-01T12:26:28.582Z,9.79
2023-04-01T12:29:16.356Z,9.85
2023-04-01T12:31:55.006Z,9.93
2023-04-01T12:34:53.853Z,9.82
2023-04-01T12:37:31.609Z,9.82
2023-04-01T12:40:29.681Z,9.85
2023-04-01T12:43:21.196Z,9.89
2023-04-01T12:45:54.160Z,9.98
2023-04-01T12:49:01.722Z,10.02
2023-04-01T12:51:51.047Z,10.16
2023-04-01T12:54:37.928Z,10.21
2023-04-01T12:57:17.890Z,10.20
2023-04-01T13:00:04.119Z,10.16
2023-04-01T13:02:47.466Z,10.27
2023-04-01T13:05:32.925Z,10.10
2023-04-01T13:08:22.829Z,10.13
2023-04-01T13:11:04.683Z,10.13
2023-04-01T13:13:47.581Z,10.24
2023-04-01T13:16:20.405Z,10.18
2023-04-01T13:18:59.577Z,10.06
2023-04-01T13:21:40.764Z,10.12
2023-04-01T13:24:21.381Z,10.13
2023-04-01T13:27:00.497Z,10.07
2023-04-01T13:29:33.988Z,9.94
2023-04-01T13:32:33.212Z,9.96
2023-04-01T13:35:25.914Z,10.09
2023-04-01T13:38:12.558Z,10.01
2023-04-01T13:41:02.181Z,10.08
2023-04-01T13:43:37.872Z,10.11
2023-04-01T13:46:25.885Z,10.01
2023-04-01T13:49:22.071Z,9.93
2023-04-01T13:52:13.861Z,9.93
2023-04-01T13:55:01.036Z,9.99
2023-04-01T13:57:55.920Z,9.93
2023-04-01T14:00:49.383Z,9.88
2023-04-01T14:03:34.540Z,9.88
2023-04-01T14:06:19.460Z,9.86
2023-04-01T14:09:12.917Z,9.86
2023-04-01T14:11:49.769Z,9.91
2023-04-01T14:14:30.270Z,9.85
2023-04-01T14:17:10.725Z,9.76
2023-04-01T14:20:21.763Z,9.79
2023-04-01T14:23:14.885Z,9.87
2023-04-01T14:26:03.887Z,9.91
2023-04-01T14:28:38.466Z,10.00
2023-04-01T14:31:29.225Z,9.99
2023-04-01T14:34:07.593Z,10.00
2023-04-01T14:37:02.576Z,10.00
2023-04-01T14:39:54.514Z,9.90
2023-04-01T14:42:43.662Z,9.88
2023-04-01T14:45:45.774Z,9.79
2023-04-01T14:48:25.348Z,9.83
2023-04-01T14:50:56.644Z,9.73
2023-04-01T14:53:31.331Z,9.82
2023-04-01T14:56:03.799Z,9.88
2023-04-01T14:58:44.565Z,9.86
2023-04-01T15:01:37.147Z,9.83
2023-04-01T15:04:25.402Z,9.88
2023-04-01T15:07:05.770Z,9.78
2023-04-01T15:09:42.792Z,9.78
2023-04-01T15:12:25.507Z,9.74
2023-04-01T15:15:05.771Z,9.76
2023-04-01T15:17:59.487Z,9.76
2023-04-01T15:20:44.872Z,9.74
2023-04-01T15:23:27.237Z,9.74
2023-04-01T15:26:23.768Z,9.78
2023-04-01T15:29:25.145Z,9.68
2023-04-01T15:31:59.167Z,9.68
2023-04-01T15:34:36.048Z,9.69
2023-04-01T15:37:12.057Z,9.74
2023-04-01T15:39:53.706Z,9.66
2023-04-01T15:42:33.932Z,9.66
2023-04-01T15:45:18.535Z,9.63
2023-04-01T15:47:55.967Z,9.69
2023-04-01T15:50:51.124Z,9.66
2023-04-01T15:53:37.626Z,9.64
2023-04-01T15:56:18.233Z,9.57
2023-04-01T15:59:01.581Z,9.45
2023-04-01T16:01:41.669Z,9.52
2023-04-01T16:04:27.705Z,9.40
2023-04-01T16:07:07.103Z,9.45
2023-04-01T16:09:46.610Z,9.37
2023-04-01T16:12:19.949Z,9.35
2023-04-01T16:15:04.288Z,9.38
2023-04-01T16:17:46.942Z,9.35
2023-04-01T16:20:21.854Z,9.34
2023-04-01T16:23:00.222Z,9.33
2023-04-01T16:25:36.126Z,9.38
2023-04-01T16:28:23.324Z,9.39
2023-04-01T16:30:59.780Z,9.44
2023-04-01T16:33:40.052Z,9.49
2023-04-01T16:36:21.519Z,9.48
2023-04-01T16:38:55.217Z,9.50
2023-04-01T16:41:28.122Z,9.42
2023-04-01T16:44:07.774Z,9.41
2023-04-01T16:46:41.606Z,9.41
2023-04-01T16:49:30.017Z,9.40
2023-04-01T16:52:14.611Z,9.35
2023-04-01T16:54:48.348Z,9.41
2023-04-01T16:57:27.552Z,9.42
2023-04-01T17:00:01.921Z,9.42
2023-04-01T17:02:35.480Z,9.38
2023-04-01T17:05:07.585Z,9.35
2023-04-01T17:07:47.501Z,9.37
2023-04-01T17:10:37.582Z,9.31
2023-04-01T17:13:36.625Z,9.32
2023-04-01T17:16:31.051Z,9.29
2023-04-01T17:19:08.683Z,9.24
2023-04-01T17:21:52.858Z,9.21
2023-04-01T17:24:34.024Z,9.22
2023-04-01T17:27:16.084Z,9.21
2023-04-01T17:30:03.485Z,9.22
2023-04-01T17:32:47.403Z,9.31
2023-04-01T17:35:21.473Z,9.37
2023-04-01T17:38:06.525Z,9.37
2023-04-01T17:40:46.458Z,9.29
2023-04-01T17:43:24.691Z,9.23
2023-04-01T17:45:57.235Z,9.20
2023-04-01T17:48:40.688Z,9.21
2023-04-01T17:51:28.572Z,9.07
2023-04-01T17:54:13.181Z,9.06
2023-04-01T17:56:51.728Z,9.04
2023-04-01T17:59:31.867Z,9.04
2023-04-01T18:02:06.550Z,8.98
2023-04-01T18:05:01.100Z,8.94
2023-04-01T18:07:46.765Z,8.88
2023-04-01T18:10:32.175Z,8.76
2023-04-01T18:13:33.314Z,8.71
2023-04-01T18:16:13.946Z,8.62
2023-04-01T18:18:54.308Z,8.57
2023-04-01T18:21:32.887Z,8.55
2023-04-01T18:24:05.621Z,8.44
2023-04-01T18:26:37.988Z,8.44
2023-04-01T18:29:16.873Z,8.37
2023-04-01T18:31:47.776Z,8.30
2023-04-01T18:34:28.637Z,8.18
2023-04-01T18:37:01.524Z,8.19
2023-04-01T18:39:37.889Z,8.19
2023-04-01T18:42:18.235Z,8.15
2023-04-01T18:44:51.042Z,8.11
2023-04-01T18:47:29.207Z,8.03
2023-04-01T18:50:04.038Z,8.03
2023-04-01T18:52:38.180Z,7.99
2023-04-01T18:55:31.194Z,7.94
2023-04-01T18:58:15.790Z,7.91
2023-04-01T19:00:50.694Z,7.86
2023-04-01T19:03:24.520Z,7.80
2023-04-01T19:06:07.787Z,7.79
2023-04-01T19:08:41.363Z,7.76
2023-04-01T19:11:16.768Z,7.71
2023-04-01T19:13:59.053Z,7.72
2023-04-01T19:16:38.806Z,7.70
2023-04-01T19:19:23.892Z,7.63
2023-04-01T19:21:58.172Z,7.66
2023-04-01T19:24:53.532Z,7.67
2023-04-01T19:27:34.075Z,7.62
2023-04-01T19:30:23.602Z,7.62
2023-04-01T19:32:58.505Z,7.61
2023-04-01T19:35:37.871Z,7.56
2023-04-01T19:38:13.380Z,7.59
2023-04-01T19:40:53.787Z,7.58
2023-04-01T19:43:36.658Z,7.58
2023-04-01T19:46:16.332Z,7.59
2023-04-01T19:48:53.685Z,7.56
2023-04-01T19:51:31.240Z,7.52
2023-04-01T19:54:06.280Z,7.52
2023-04-01T19:56:41.380Z,7.56
2023-04-01T19:59:18.959Z,7.50
2023-04-01T20:01:52.824Z,7.48
2023-04-01T20:04:26.778Z,7.49
2023-04-01T20:06:59.496Z,7.51
2023-04-01T20:09:50.779Z,7.43
2023-04-01T20:12:31.635Z,7.38
2023-04-01T20:15:03.105Z,7.38
2023-04-01T20:17:41.099Z,7.39
2023-04-01T20:20:22.793Z,7.38
2023-04-01T20:23:04.226Z,7.37
2023-04-01T20:25:40.160Z,7.36
2023-04-01T20:28:15.680Z,7.38
2023-04-01T20:31:05.377Z,7.37
2023-04-01T20:34:10.701Z,7.40
2023-04-01T20:36:52.634Z,7.40
2023-04-01T20:39:42.384Z,7.39
2023-04-01T20:42:36.445Z,7.38
2023-04-01T20:45:21.117Z,7.39
2023-04-01T20:48:06.175Z,7.40
2023-04-01T20:50:45.774Z,7.38
2023-04-01T20:53:18.229Z,7.41
2023-04-01T20:56:15.184Z,7.42
2023-04-01T20:58:53.830Z,7.38
2023-04-01T21:01:34.875Z,7.38
2023-04-01T21:04:30.457Z,7.39
2023-04-01T21:07:23.272Z,7.37
2023-04-01T21:10:09.062Z,7.37
2023-04-01T21:12:48.639Z,7.35
2023-04-01T21:15:37.836Z,7.33
2023-04-01T21:18:40.584Z,7.33
2023-04-01T21:21:23.549Z,7.33
2023-04-01T21:24:25.141Z,7.35
2023-04-01T21:27:01.881Z,7.36
2023-04-01T21:29:47.927Z,7.33
2023-04-01T21:32:43.798Z,7.36
2023-04-01T21:35:23.619Z,7.37
2023-04-01T21:38:14.882Z,7.34
2023-04-01T21:40:59.815Z,7.35
2023-04-01T21:44:00.805Z,7.39
2023-04-01T21:46:53.539Z,7.38
2023-04-01T21:49:51.600Z,7.42
2023-04-01T21:52:47.966Z,7.38
2023-04-01T21:56:03.658Z,7.35
2023-04-01T21:59:03.949Z,7.37
2023-04-01T22:01:56.825Z,7.39
2023-04-01T22:04:59.623Z,7.40
2023-04-01T22:07:33.810Z,7.40
2023-04-01T22:10:11.881Z,7.39
2023-04-01T22:12:48.040Z,7.44
2023-04-01T22:15:26.558Z,7.39
2023-04-01T22:18:02.644Z,7.39
2023-04-01T22:20:38.002Z,7.41
2023-04-01T22:23:32.799Z,7.40
2023-04-01T22:26:07.313Z,7.38
2023-04-01T22:28:40.809Z,7.43
2023-04-01T22:31:15.225Z,7.41
2023-04-01T22:33:51.634Z,7.34
2023-04-01T22:36:29.632Z,7.34
2023-04-01T22:39:23.352Z,7.31
2023-04-01T22:42:02.579Z,7.31
2023-04-01T22:44:49.386Z,7.24
2023-04-01T22:47:27.472Z,7.24
2023-04-01T22:50:01.330Z,7.24
2023-04-01T22:52:35.523Z,7.17
2023-04-01T22:55:19.573Z,7.17
2023-04-01T22:57:53.980Z,7.09
2023-04-01T23:00:26.318Z,7.09
2023-04-01T23:03:13.978Z,7.03
2023-04-01T23:05:53.183Z,6.98
2023-04-01T23:09:05.087Z,6.96
2023-04-01T23:11:37.853Z,6.91
2023-04-01T23:14:47.708Z,6.86
2023-04-01T23:17:40.423Z,6.82
2023-04-01T23:20:34.285Z,6.75
2023-04-01T23:23:17.591Z,6.82
2023-04-01T23:25:56.278Z,6.79
2023-04-01T23:28:48.346Z,6.77
2023-04-01T23:31:50.201Z,6.73
2023-04-01T23:34:26.676Z,6.70
2023-04-01T23:37:00.096Z,6.67
2023-04-01T23:39:44.889Z,6.69
2023-04-01T23:42:20.905Z,6.69
2023-04-01T23:44:51.409Z,6.66
2023-04-01T23:47:22.681Z,6.68
2023-04-01T23:49:55.112Z,6.65
2023-04-01T23:52:37.283Z,6.70
2023-04-01T23:55:25.240Z,6.65
2023-04-01T23:58:16.296Z,6.62
